DLH4566 EDDM-EDDF
Flight info
| Callsign | DLH4566 |
|---|---|
| Flight time | 1h 8m |
| Altitude | 24000 |
| Route | GIVMI6S GIVMI Y101 ERNAS T161 DEBHI DEBHI1B |
| Aircraft | A20N/M-SDE2E3FGHIRWXY/LB1 |
Departure
| Time | 2026-05-07 15:02 |
|---|---|
| Airport | Munich Airport (EDDM) |
Arrival
| Time | 2026-05-07 16:10 |
|---|---|
| Airport | Frankfurt Main Airport (EDDF) |
| Time | Latitude | Longitude | Altitude | Speed | Heading |
|---|---|---|---|---|---|
| 2026-05-07 14:44 | 48.35255 | 11.79323 | 1467 ft | 0 kts | 263° |
| 2026-05-07 14:53 | 48.35255 | 11.79329 | 1467 ft | 4 kts | 264° |
| 2026-05-07 14:53 | 48.35256 | 11.79366 | 1465 ft | 4 kts | 267° |
| 2026-05-07 14:53 | 48.35258 | 11.79403 | 1458 ft | 4 kts | 274° |
| 2026-05-07 14:54 | 48.35241 | 11.79439 | 1458 ft | 0 kts | 347° |
| 2026-05-07 14:55 | 48.35274 | 11.79439 | 1462 ft | 11 kts | 6° |
| 2026-05-07 14:55 | 48.35357 | 11.79473 | 1467 ft | 13 kts | 2° |
| 2026-05-07 14:55 | 48.35456 | 11.79457 | 1466 ft | 16 kts | 355° |
| 2026-05-07 14:56 | 48.35553 | 11.79437 | 1467 ft | 14 kts | 354° |
| 2026-05-07 14:56 | 48.35570 | 11.79441 | 1467 ft | 0 kts | 22° |
| 2026-05-07 14:56 | 48.35608 | 11.79478 | 1461 ft | 13 kts | 29° |
| 2026-05-07 14:56 | 48.35713 | 11.79478 | 1467 ft | 18 kts | 353° |
| 2026-05-07 14:57 | 48.35851 | 11.79455 | 1460 ft | 21 kts | 2° |
| 2026-05-07 14:57 | 48.35931 | 11.79503 | 1463 ft | 1 kts | 8° |
| 2026-05-07 14:57 | 48.35941 | 11.79504 | 1461 ft | 4 kts | 4° |
| 2026-05-07 14:57 | 48.35988 | 11.79499 | 1465 ft | 9 kts | 355° |
| 2026-05-07 14:58 | 48.36070 | 11.79491 | 1467 ft | 14 kts | 9° |
| 2026-05-07 14:58 | 48.36108 | 11.79554 | 1463 ft | 13 kts | 72° |
| 2026-05-07 14:58 | 48.36122 | 11.79718 | 1458 ft | 18 kts | 83° |
| 2026-05-07 14:58 | 48.36139 | 11.79932 | 1466 ft | 23 kts | 83° |
| 2026-05-07 14:59 | 48.36159 | 11.80193 | 1464 ft | 27 kts | 84° |
| 2026-05-07 14:59 | 48.36182 | 11.80488 | 1467 ft | 30 kts | 84° |
| 2026-05-07 14:59 | 48.36198 | 11.80703 | 1467 ft | 16 kts | 83° |
| 2026-05-07 14:59 | 48.36213 | 11.80894 | 1464 ft | 17 kts | 82° |
| 2026-05-07 15:00 | 48.36227 | 11.81085 | 1460 ft | 21 kts | 82° |
| 2026-05-07 15:00 | 48.36246 | 11.81325 | 1466 ft | 25 kts | 83° |
| 2026-05-07 15:00 | 48.36268 | 11.81610 | 1463 ft | 29 kts | 83° |
| 2026-05-07 15:00 | 48.36300 | 11.81910 | 1461 ft | 26 kts | 55° |
| 2026-05-07 15:01 | 48.36461 | 11.82008 | 1466 ft | 27 kts | 357° |
| 2026-05-07 15:01 | 48.36640 | 11.81961 | 1464 ft | 24 kts | 326° |
| 2026-05-07 15:01 | 48.36654 | 11.81569 | 1467 ft | 81 kts | 265° |
| 2026-05-07 15:01 | 48.36545 | 11.80279 | 1739 ft | 151 kts | 264° |
| 2026-05-07 15:02 | 48.36422 | 11.78568 | 2867 ft | 174 kts | 268° |
| 2026-05-07 15:02 | 48.36336 | 11.76627 | 4198 ft | 195 kts | 269° |
| 2026-05-07 15:02 | 48.36241 | 11.74441 | 5464 ft | 228 kts | 265° |
| 2026-05-07 15:02 | 48.35971 | 11.71882 | 6231 ft | 273 kts | 262° |
| 2026-05-07 15:03 | 48.35860 | 11.68795 | 6641 ft | 320 kts | 277° |
| 2026-05-07 15:03 | 48.36632 | 11.65489 | 7395 ft | 347 kts | 300° |
| 2026-05-07 15:03 | 48.37904 | 11.62471 | 9114 ft | 339 kts | 301° |
| 2026-05-07 15:03 | 48.39147 | 11.59521 | 11125 ft | 327 kts | 300° |
| 2026-05-07 15:04 | 48.40333 | 11.56666 | 13197 ft | 313 kts | 299° |
| 2026-05-07 15:04 | 48.41455 | 11.53931 | 15122 ft | 300 kts | 299° |
| 2026-05-07 15:04 | 48.42666 | 11.51426 | 16655 ft | 307 kts | 313° |
| 2026-05-07 15:04 | 48.44376 | 11.49295 | 17447 ft | 333 kts | 321° |
| 2026-05-07 15:05 | 48.46343 | 11.47163 | 18131 ft | 358 kts | 323° |
| 2026-05-07 15:05 | 48.48416 | 11.44985 | 19165 ft | 365 kts | 323° |
| 2026-05-07 15:05 | 48.50509 | 11.42764 | 20348 ft | 370 kts | 322° |
| 2026-05-07 15:05 | 48.52599 | 11.40510 | 21458 ft | 375 kts | 322° |
| 2026-05-07 15:06 | 48.54740 | 11.38172 | 22526 ft | 382 kts | 322° |
| 2026-05-07 15:06 | 48.56904 | 11.35789 | 23433 ft | 391 kts | 321° |
| 2026-05-07 15:06 | 48.59135 | 11.33320 | 23809 ft | 410 kts | 322° |
| 2026-05-07 15:06 | 48.61503 | 11.30692 | 23974 ft | 432 kts | 322° |
| 2026-05-07 15:07 | 48.63993 | 11.27932 | 24029 ft | 454 kts | 322° |
| 2026-05-07 15:07 | 48.66606 | 11.25036 | 24028 ft | 473 kts | 322° |
| 2026-05-07 15:07 | 48.69261 | 11.22093 | 24029 ft | 474 kts | 322° |
| 2026-05-07 15:07 | 48.71836 | 11.19242 | 24022 ft | 441 kts | 322° |
| 2026-05-07 15:08 | 48.74232 | 11.16583 | 24017 ft | 411 kts | 322° |
| 2026-05-07 15:08 | 48.76465 | 11.14100 | 24019 ft | 385 kts | 322° |
| 2026-05-07 15:08 | 48.78628 | 11.11686 | 24030 ft | 389 kts | 322° |
| 2026-05-07 15:08 | 48.80809 | 11.09245 | 24023 ft | 389 kts | 322° |
| 2026-05-07 15:09 | 48.82970 | 11.06825 | 24033 ft | 389 kts | 322° |
| 2026-05-07 15:09 | 48.85142 | 11.04393 | 23969 ft | 387 kts | 322° |
| 2026-05-07 15:09 | 48.87303 | 11.01973 | 23535 ft | 384 kts | 322° |
| 2026-05-07 15:09 | 48.89454 | 10.99563 | 22864 ft | 380 kts | 321° |
| 2026-05-07 15:10 | 48.91542 | 10.97220 | 22081 ft | 376 kts | 321° |
| 2026-05-07 15:10 | 48.93639 | 10.94865 | 21296 ft | 372 kts | 321° |
| 2026-05-07 15:10 | 48.95717 | 10.92555 | 20880 ft | 365 kts | 322° |
| 2026-05-07 15:10 | 48.97736 | 10.90331 | 20933 ft | 357 kts | 321° |
| 2026-05-07 15:11 | 48.99795 | 10.87991 | 20826 ft | 373 kts | 321° |
| 2026-05-07 15:11 | 49.01842 | 10.85652 | 20682 ft | 370 kts | 321° |
| 2026-05-07 15:11 | 49.03909 | 10.83298 | 20260 ft | 369 kts | 321° |
| 2026-05-07 15:11 | 49.05977 | 10.80950 | 20101 ft | 370 kts | 321° |
| 2026-05-07 15:12 | 49.08046 | 10.78603 | 20080 ft | 371 kts | 321° |
| 2026-05-07 15:12 | 49.10097 | 10.76279 | 20079 ft | 371 kts | 321° |
| 2026-05-07 15:12 | 49.12173 | 10.73924 | 20079 ft | 371 kts | 321° |
| 2026-05-07 15:12 | 49.14250 | 10.71565 | 20079 ft | 370 kts | 321° |
| 2026-05-07 15:13 | 49.16298 | 10.69238 | 20078 ft | 370 kts | 321° |
| 2026-05-07 15:13 | 49.18374 | 10.66875 | 20083 ft | 370 kts | 321° |
| 2026-05-07 15:13 | 49.20439 | 10.64522 | 20082 ft | 369 kts | 321° |
| 2026-05-07 15:13 | 49.22481 | 10.62193 | 20052 ft | 369 kts | 321° |
| 2026-05-07 15:14 | 49.24548 | 10.59833 | 20052 ft | 369 kts | 321° |
| 2026-05-07 15:14 | 49.26595 | 10.57493 | 20062 ft | 370 kts | 321° |
| 2026-05-07 15:14 | 49.28672 | 10.55113 | 20053 ft | 373 kts | 321° |
| 2026-05-07 15:14 | 49.30758 | 10.52723 | 20038 ft | 371 kts | 321° |
| 2026-05-07 15:15 | 49.32820 | 10.50361 | 19724 ft | 368 kts | 321° |
| 2026-05-07 15:15 | 49.34824 | 10.47933 | 19149 ft | 365 kts | 317° |
| 2026-05-07 15:15 | 49.36608 | 10.45179 | 18465 ft | 361 kts | 310° |
| 2026-05-07 15:15 | 49.38120 | 10.42172 | 17696 ft | 357 kts | 303° |
| 2026-05-07 15:16 | 49.39534 | 10.39034 | 16939 ft | 354 kts | 304° |
| 2026-05-07 15:16 | 49.40934 | 10.35967 | 16441 ft | 349 kts | 304° |
| 2026-05-07 15:16 | 49.42330 | 10.32917 | 16175 ft | 352 kts | 304° |
| 2026-05-07 15:16 | 49.43744 | 10.29821 | 15926 ft | 352 kts | 304° |
| 2026-05-07 15:17 | 49.45147 | 10.26743 | 15666 ft | 351 kts | 304° |
| 2026-05-07 15:17 | 49.46527 | 10.23709 | 15409 ft | 349 kts | 304° |
| 2026-05-07 15:17 | 49.47914 | 10.20657 | 15170 ft | 348 kts | 304° |
| 2026-05-07 15:17 | 49.49305 | 10.17590 | 14928 ft | 346 kts | 304° |
| 2026-05-07 15:18 | 49.50679 | 10.14558 | 14675 ft | 345 kts | 304° |
| 2026-05-07 15:18 | 49.52050 | 10.11526 | 14605 ft | 349 kts | 304° |
| 2026-05-07 15:18 | 49.53443 | 10.08444 | 15237 ft | 352 kts | 304° |
| 2026-05-07 15:18 | 49.54845 | 10.05338 | 16449 ft | 352 kts | 304° |
| 2026-05-07 15:19 | 49.56254 | 10.02213 | 17237 ft | 357 kts | 304° |
| 2026-05-07 15:19 | 49.57662 | 9.99086 | 17675 ft | 360 kts | 304° |
| 2026-05-07 15:19 | 49.59094 | 9.95902 | 17916 ft | 362 kts | 304° |
| 2026-05-07 15:19 | 49.60535 | 9.92696 | 18036 ft | 362 kts | 304° |
| 2026-05-07 15:20 | 49.61973 | 9.89490 | 18056 ft | 364 kts | 304° |
| 2026-05-07 15:20 | 49.63415 | 9.86275 | 17926 ft | 364 kts | 304° |
| 2026-05-07 15:20 | 49.64851 | 9.83066 | 17632 ft | 362 kts | 304° |
| 2026-05-07 15:20 | 49.66278 | 9.79873 | 17341 ft | 360 kts | 304° |
| 2026-05-07 15:21 | 49.67679 | 9.76736 | 17070 ft | 359 kts | 304° |
| 2026-05-07 15:21 | 49.69096 | 9.73559 | 16758 ft | 357 kts | 304° |
| 2026-05-07 15:21 | 49.70508 | 9.70389 | 16293 ft | 355 kts | 304° |
| 2026-05-07 15:21 | 49.71883 | 9.67298 | 16010 ft | 351 kts | 304° |
| 2026-05-07 15:22 | 49.73271 | 9.64174 | 15743 ft | 352 kts | 304° |
| 2026-05-07 15:22 | 49.74661 | 9.61043 | 15473 ft | 351 kts | 304° |
| 2026-05-07 15:22 | 49.76026 | 9.57963 | 15141 ft | 350 kts | 304° |
| 2026-05-07 15:22 | 49.77398 | 9.54863 | 14616 ft | 347 kts | 304° |
| 2026-05-07 15:23 | 49.78746 | 9.51814 | 14241 ft | 341 kts | 304° |
| 2026-05-07 15:23 | 49.80099 | 9.48748 | 14099 ft | 346 kts | 304° |
| 2026-05-07 15:23 | 49.81335 | 9.45947 | 14058 ft | 344 kts | 304° |
| 2026-05-07 15:23 | 49.82675 | 9.42910 | 14058 ft | 344 kts | 304° |
| 2026-05-07 15:24 | 49.84021 | 9.39852 | 13954 ft | 342 kts | 304° |
| 2026-05-07 15:24 | 49.85335 | 9.36788 | 13498 ft | 339 kts | 301° |
| 2026-05-07 15:24 | 49.86396 | 9.33539 | 12834 ft | 337 kts | 292° |
| 2026-05-07 15:24 | 49.87147 | 9.30100 | 12145 ft | 334 kts | 286° |
| 2026-05-07 15:25 | 49.87785 | 9.26696 | 11475 ft | 331 kts | 287° |
| 2026-05-07 15:25 | 49.88437 | 9.23274 | 10811 ft | 328 kts | 287° |
| 2026-05-07 15:25 | 49.89080 | 9.19914 | 10414 ft | 322 kts | 287° |
| 2026-05-07 15:25 | 49.89720 | 9.16567 | 10357 ft | 327 kts | 287° |
| 2026-05-07 15:26 | 49.90357 | 9.13225 | 10291 ft | 318 kts | 287° |
| 2026-05-07 15:26 | 49.90972 | 9.09991 | 10174 ft | 304 kts | 287° |
| 2026-05-07 15:26 | 49.91553 | 9.06926 | 10050 ft | 288 kts | 287° |
| 2026-05-07 15:26 | 49.92105 | 9.04015 | 9917 ft | 275 kts | 287° |
| 2026-05-07 15:27 | 49.92645 | 9.01157 | 9813 ft | 281 kts | 287° |
| 2026-05-07 15:27 | 49.93192 | 8.98261 | 9703 ft | 278 kts | 287° |
| 2026-05-07 15:27 | 49.93765 | 8.95403 | 9591 ft | 277 kts | 293° |
| 2026-05-07 15:27 | 49.94882 | 8.92982 | 9488 ft | 277 kts | 319° |
| 2026-05-07 15:28 | 49.96575 | 8.91573 | 9382 ft | 279 kts | 344° |
| 2026-05-07 15:28 | 49.98514 | 8.91377 | 9280 ft | 281 kts | 0° |
| 2026-05-07 15:28 | 50.00445 | 8.91527 | 9170 ft | 281 kts | 6° |
| 2026-05-07 15:28 | 50.02285 | 8.92560 | 9062 ft | 284 kts | 32° |
| 2026-05-07 15:29 | 50.03655 | 8.94778 | 8959 ft | 288 kts | 58° |
| 2026-05-07 15:29 | 50.04442 | 8.97662 | 8842 ft | 289 kts | 69° |
| 2026-05-07 15:29 | 50.05104 | 9.00576 | 8727 ft | 289 kts | 70° |
| 2026-05-07 15:29 | 50.05763 | 9.03540 | 8622 ft | 288 kts | 70° |
| 2026-05-07 15:30 | 50.06427 | 9.06482 | 8521 ft | 288 kts | 69° |
| 2026-05-07 15:30 | 50.07103 | 9.09423 | 8405 ft | 287 kts | 69° |
| 2026-05-07 15:30 | 50.07773 | 9.12310 | 8300 ft | 287 kts | 69° |
| 2026-05-07 15:30 | 50.08454 | 9.15229 | 8188 ft | 286 kts | 68° |
| 2026-05-07 15:31 | 50.09452 | 9.17855 | 8068 ft | 281 kts | 44° |
| 2026-05-07 15:31 | 50.11045 | 9.19518 | 7817 ft | 274 kts | 18° |
| 2026-05-07 15:31 | 50.12906 | 9.19879 | 7483 ft | 265 kts | 350° |
| 2026-05-07 15:31 | 50.14528 | 9.18891 | 7327 ft | 244 kts | 322° |
| 2026-05-07 15:32 | 50.15522 | 9.16931 | 7178 ft | 224 kts | 290° |
| 2026-05-07 15:32 | 50.15915 | 9.14670 | 7077 ft | 213 kts | 283° |
| 2026-05-07 15:32 | 50.16255 | 9.12426 | 6842 ft | 211 kts | 283° |
| 2026-05-07 15:32 | 50.16592 | 9.10199 | 6587 ft | 211 kts | 283° |
| 2026-05-07 15:33 | 50.16911 | 9.07966 | 6346 ft | 209 kts | 278° |
| 2026-05-07 15:33 | 50.16886 | 9.05707 | 6175 ft | 208 kts | 261° |
| 2026-05-07 15:33 | 50.16521 | 9.03517 | 6133 ft | 212 kts | 253° |
| 2026-05-07 15:33 | 50.16015 | 9.01349 | 6081 ft | 211 kts | 251° |
| 2026-05-07 15:34 | 50.15503 | 8.99200 | 6052 ft | 212 kts | 251° |
| 2026-05-07 15:34 | 50.14990 | 8.97039 | 5998 ft | 210 kts | 251° |
| 2026-05-07 15:34 | 50.14487 | 8.94925 | 5964 ft | 211 kts | 251° |
| 2026-05-07 15:34 | 50.13975 | 8.92782 | 5906 ft | 210 kts | 251° |
| 2026-05-07 15:35 | 50.13471 | 8.90658 | 5860 ft | 206 kts | 251° |
| 2026-05-07 15:35 | 50.12980 | 8.88598 | 5800 ft | 198 kts | 251° |
| 2026-05-07 15:35 | 50.12512 | 8.86633 | 5745 ft | 187 kts | 251° |
| 2026-05-07 15:35 | 50.12080 | 8.84816 | 5706 ft | 186 kts | 252° |
| 2026-05-07 15:36 | 50.11613 | 8.82842 | 5607 ft | 200 kts | 251° |
| 2026-05-07 15:36 | 50.11121 | 8.80786 | 5549 ft | 202 kts | 251° |
| 2026-05-07 15:36 | 50.10632 | 8.78731 | 5430 ft | 202 kts | 251° |
| 2026-05-07 15:36 | 50.10145 | 8.76680 | 5357 ft | 193 kts | 251° |
| 2026-05-07 15:37 | 50.09709 | 8.74892 | 5599 ft | 170 kts | 252° |
| 2026-05-07 15:37 | 50.09333 | 8.73133 | 5356 ft | 172 kts | 263° |
| 2026-05-07 15:37 | 50.09563 | 8.71317 | 5068 ft | 183 kts | 306° |
| 2026-05-07 15:37 | 50.10647 | 8.70306 | 6260 ft | 184 kts | 351° |
| 2026-05-07 15:38 | 50.12047 | 8.70221 | 6946 ft | 226 kts | 355° |
| 2026-05-07 15:38 | 50.13747 | 8.70016 | 6986 ft | 257 kts | 354° |
| 2026-05-07 15:38 | 50.15556 | 8.70275 | 6957 ft | 266 kts | 17° |
| 2026-05-07 15:38 | 50.17125 | 8.71805 | 6728 ft | 269 kts | 44° |
| 2026-05-07 15:39 | 50.18094 | 8.74283 | 6235 ft | 276 kts | 71° |
| 2026-05-07 15:39 | 50.18618 | 8.77178 | 5770 ft | 276 kts | 73° |
| 2026-05-07 15:39 | 50.19118 | 8.80060 | 5331 ft | 274 kts | 73° |
| 2026-05-07 15:39 | 50.19607 | 8.82909 | 5110 ft | 272 kts | 73° |
| 2026-05-07 15:40 | 50.20098 | 8.85779 | 5055 ft | 273 kts | 73° |
| 2026-05-07 15:40 | 50.20581 | 8.88599 | 5052 ft | 272 kts | 73° |
| 2026-05-07 15:40 | 50.20947 | 8.90740 | 5054 ft | 273 kts | 73° |
| 2026-05-07 15:40 | 50.21436 | 8.93601 | 5052 ft | 272 kts | 73° |
| 2026-05-07 15:41 | 50.21920 | 8.96436 | 5052 ft | 272 kts | 73° |
| 2026-05-07 15:41 | 50.22408 | 8.99296 | 5052 ft | 272 kts | 75° |
| 2026-05-07 15:41 | 50.22476 | 9.02242 | 5054 ft | 275 kts | 101° |
| 2026-05-07 15:41 | 50.21673 | 9.04936 | 5054 ft | 276 kts | 129° |
| 2026-05-07 15:42 | 50.20730 | 9.06272 | 5053 ft | 275 kts | 149° |
| 2026-05-07 15:42 | 50.18308 | 9.06927 | 5056 ft | 269 kts | 195° |
| 2026-05-07 15:42 | 50.16776 | 9.05543 | 5057 ft | 248 kts | 231° |
| 2026-05-07 15:42 | 50.16085 | 9.03208 | 5057 ft | 232 kts | 259° |
| 2026-05-07 15:43 | 50.15861 | 9.01593 | 5050 ft | 229 kts | 259° |
| 2026-05-07 15:43 | 50.15452 | 8.99167 | 5058 ft | 231 kts | 255° |
| 2026-05-07 15:43 | 50.14933 | 8.96801 | 5051 ft | 229 kts | 252° |
| 2026-05-07 15:43 | 50.14375 | 8.94456 | 5053 ft | 230 kts | 252° |
| 2026-05-07 15:44 | 50.13828 | 8.92152 | 5052 ft | 221 kts | 252° |
| 2026-05-07 15:44 | 50.13315 | 8.90000 | 5053 ft | 207 kts | 252° |
| 2026-05-07 15:44 | 50.12809 | 8.87869 | 5054 ft | 210 kts | 252° |
| 2026-05-07 15:44 | 50.12304 | 8.85748 | 5003 ft | 207 kts | 252° |
| 2026-05-07 15:45 | 50.11803 | 8.83647 | 4772 ft | 205 kts | 252° |
| 2026-05-07 15:45 | 50.11308 | 8.81565 | 4453 ft | 205 kts | 252° |
| 2026-05-07 15:45 | 50.10810 | 8.79478 | 4201 ft | 202 kts | 252° |
| 2026-05-07 15:45 | 50.10338 | 8.77501 | 3892 ft | 192 kts | 252° |
| 2026-05-07 15:46 | 50.09451 | 8.73775 | 3339 ft | 175 kts | 252° |
| 2026-05-07 15:46 | 50.09021 | 8.71967 | 3082 ft | 178 kts | 251° |
| 2026-05-07 15:46 | 50.08594 | 8.70180 | 2825 ft | 177 kts | 252° |
| 2026-05-07 15:47 | 50.08180 | 8.68450 | 2580 ft | 163 kts | 251° |
| 2026-05-07 15:47 | 50.07787 | 8.66796 | 2354 ft | 168 kts | 252° |
| 2026-05-07 15:47 | 50.07387 | 8.65120 | 2102 ft | 159 kts | 252° |
| 2026-05-07 15:47 | 50.07018 | 8.63576 | 1877 ft | 143 kts | 252° |
| 2026-05-07 15:48 | 50.06689 | 8.62196 | 1677 ft | 138 kts | 252° |
| 2026-05-07 15:48 | 50.06358 | 8.60807 | 1476 ft | 136 kts | 252° |
| 2026-05-07 15:48 | 50.06030 | 8.59431 | 1280 ft | 135 kts | 252° |
| 2026-05-07 15:48 | 50.05713 | 8.58109 | 1085 ft | 130 kts | 251° |
| 2026-05-07 15:49 | 50.05402 | 8.56803 | 895 ft | 127 kts | 250° |
| 2026-05-07 15:49 | 50.05102 | 8.55541 | 725 ft | 125 kts | 249° |
| 2026-05-07 15:49 | 50.04795 | 8.54253 | 558 ft | 126 kts | 250° |
| 2026-05-07 15:49 | 50.04498 | 8.52983 | 384 ft | 124 kts | 250° |
| 2026-05-07 15:50 | 50.04256 | 8.51975 | 361 ft | 93 kts | 249° |
| 2026-05-07 15:50 | 50.03938 | 8.50661 | 649 ft | 157 kts | 250° |
| 2026-05-07 15:50 | 50.03497 | 8.48849 | 1385 ft | 196 kts | 251° |
| 2026-05-07 15:50 | 50.02990 | 8.46719 | 2394 ft | 220 kts | 251° |
| 2026-05-07 15:51 | 50.02439 | 8.44404 | 3476 ft | 238 kts | 251° |
| 2026-05-07 15:51 | 50.01838 | 8.41880 | 4369 ft | 259 kts | 251° |
| 2026-05-07 15:51 | 50.01174 | 8.39111 | 4798 ft | 286 kts | 249° |
| 2026-05-07 15:51 | 50.00012 | 8.36503 | 5356 ft | 301 kts | 226° |
| 2026-05-07 15:52 | 49.98609 | 8.33936 | 5270 ft | 327 kts | 240° |
| 2026-05-07 15:52 | 49.97650 | 8.30648 | 5003 ft | 345 kts | 249° |
| 2026-05-07 15:52 | 49.96744 | 8.27288 | 4997 ft | 314 kts | 248° |
| 2026-05-07 15:52 | 49.95963 | 8.24425 | 4994 ft | 269 kts | 248° |
| 2026-05-07 15:53 | 49.95257 | 8.21750 | 4993 ft | 263 kts | 255° |
| 2026-05-07 15:53 | 49.95149 | 8.18989 | 4995 ft | 263 kts | 282° |
| 2026-05-07 15:53 | 49.95906 | 8.16443 | 4996 ft | 261 kts | 310° |
| 2026-05-07 15:53 | 49.97355 | 8.14771 | 4998 ft | 262 kts | 338° |
| 2026-05-07 15:54 | 49.99089 | 8.13938 | 4996 ft | 260 kts | 343° |
| 2026-05-07 15:54 | 50.00848 | 8.13158 | 4993 ft | 260 kts | 343° |
| 2026-05-07 15:54 | 50.02612 | 8.12780 | 4998 ft | 262 kts | 5° |
| 2026-05-07 15:54 | 50.04336 | 8.13719 | 4995 ft | 266 kts | 33° |
| 2026-05-07 15:55 | 50.05577 | 8.15836 | 4998 ft | 269 kts | 61° |
| 2026-05-07 15:55 | 50.06179 | 8.18607 | 4996 ft | 271 kts | 73° |
| 2026-05-07 15:55 | 50.06677 | 8.21437 | 4996 ft | 270 kts | 73° |
| 2026-05-07 15:55 | 50.07171 | 8.24215 | 4996 ft | 271 kts | 73° |
| 2026-05-07 15:56 | 50.07674 | 8.27061 | 4999 ft | 273 kts | 73° |
| 2026-05-07 15:56 | 50.08179 | 8.29921 | 4996 ft | 273 kts | 73° |
| 2026-05-07 15:56 | 50.08683 | 8.32776 | 4996 ft | 273 kts | 73° |
| 2026-05-07 15:56 | 50.09186 | 8.35627 | 4995 ft | 273 kts | 73° |
| 2026-05-07 15:57 | 50.09681 | 8.38452 | 4997 ft | 273 kts | 73° |
| 2026-05-07 15:57 | 50.10182 | 8.41326 | 4996 ft | 272 kts | 73° |
| 2026-05-07 15:57 | 50.10680 | 8.44175 | 4999 ft | 274 kts | 73° |
| 2026-05-07 15:57 | 50.11174 | 8.46995 | 4998 ft | 273 kts | 73° |
| 2026-05-07 15:58 | 50.11667 | 8.49852 | 5000 ft | 272 kts | 73° |
| 2026-05-07 15:58 | 50.12157 | 8.52707 | 5001 ft | 272 kts | 73° |
| 2026-05-07 15:58 | 50.12647 | 8.55568 | 5001 ft | 273 kts | 73° |
| 2026-05-07 15:58 | 50.13131 | 8.58378 | 4999 ft | 272 kts | 73° |
| 2026-05-07 15:59 | 50.13623 | 8.61225 | 4998 ft | 272 kts | 73° |
| 2026-05-07 15:59 | 50.14113 | 8.64088 | 4999 ft | 273 kts | 73° |
| 2026-05-07 15:59 | 50.14597 | 8.66933 | 4996 ft | 272 kts | 73° |
| 2026-05-07 15:59 | 50.15087 | 8.69807 | 5000 ft | 272 kts | 73° |
| 2026-05-07 16:00 | 50.15567 | 8.72629 | 4997 ft | 272 kts | 73° |
| 2026-05-07 16:00 | 50.16054 | 8.75501 | 5001 ft | 274 kts | 73° |
| 2026-05-07 16:00 | 50.16537 | 8.78360 | 4994 ft | 272 kts | 73° |
| 2026-05-07 16:00 | 50.17015 | 8.81190 | 5001 ft | 272 kts | 73° |
| 2026-05-07 16:01 | 50.17498 | 8.84042 | 5000 ft | 272 kts | 73° |
| 2026-05-07 16:01 | 50.17986 | 8.86901 | 4997 ft | 271 kts | 73° |
| 2026-05-07 16:01 | 50.18475 | 8.89762 | 4999 ft | 272 kts | 73° |
| 2026-05-07 16:01 | 50.18961 | 8.92622 | 4998 ft | 272 kts | 75° |
| 2026-05-07 16:02 | 50.19056 | 8.95526 | 4998 ft | 275 kts | 100° |
| 2026-05-07 16:02 | 50.18291 | 8.98249 | 4996 ft | 275 kts | 128° |
| 2026-05-07 16:02 | 50.16882 | 8.99999 | 4991 ft | 242 kts | 161° |
| 2026-05-07 16:02 | 50.15338 | 9.00064 | 4998 ft | 219 kts | 203° |
| 2026-05-07 16:03 | 50.14228 | 8.98585 | 5005 ft | 210 kts | 245° |
| 2026-05-07 16:03 | 50.13926 | 8.96456 | 5000 ft | 208 kts | 266° |
| 2026-05-07 16:03 | 50.13818 | 8.94180 | 4996 ft | 206 kts | 268° |
| 2026-05-07 16:03 | 50.13641 | 8.92018 | 4996 ft | 187 kts | 261° |
| 2026-05-07 16:04 | 50.13323 | 8.90152 | 4997 ft | 178 kts | 255° |
| 2026-05-07 16:04 | 50.12920 | 8.88334 | 4997 ft | 177 kts | 252° |
| 2026-05-07 16:04 | 50.12489 | 8.86530 | 4995 ft | 176 kts | 252° |
| 2026-05-07 16:04 | 50.12064 | 8.84742 | 4893 ft | 176 kts | 252° |
| 2026-05-07 16:05 | 50.11637 | 8.82951 | 4641 ft | 177 kts | 252° |
| 2026-05-07 16:05 | 50.11209 | 8.81152 | 4388 ft | 176 kts | 252° |
| 2026-05-07 16:05 | 50.10780 | 8.79353 | 4131 ft | 176 kts | 252° |
| 2026-05-07 16:05 | 50.10357 | 8.77574 | 3879 ft | 176 kts | 252° |
| 2026-05-07 16:06 | 50.09926 | 8.75769 | 3622 ft | 178 kts | 252° |
| 2026-05-07 16:06 | 50.09506 | 8.74004 | 3371 ft | 177 kts | 252° |
| 2026-05-07 16:06 | 50.09073 | 8.72184 | 3110 ft | 177 kts | 251° |
| 2026-05-07 16:06 | 50.08643 | 8.70387 | 2847 ft | 177 kts | 251° |
| 2026-05-07 16:07 | 50.08216 | 8.68600 | 2589 ft | 172 kts | 251° |
| 2026-05-07 16:07 | 50.07826 | 8.66965 | 2372 ft | 152 kts | 251° |
| 2026-05-07 16:07 | 50.07470 | 8.65466 | 2154 ft | 149 kts | 252° |
| 2026-05-07 16:07 | 50.07111 | 8.63959 | 1933 ft | 147 kts | 252° |
| 2026-05-07 16:08 | 50.06754 | 8.62466 | 1723 ft | 146 kts | 252° |
| 2026-05-07 16:08 | 50.06404 | 8.60999 | 1507 ft | 146 kts | 252° |
| 2026-05-07 16:08 | 50.06053 | 8.59526 | 1291 ft | 144 kts | 251° |
| 2026-05-07 16:08 | 50.05708 | 8.58086 | 1084 ft | 139 kts | 251° |
| 2026-05-07 16:09 | 50.05372 | 8.56677 | 881 ft | 137 kts | 250° |
| 2026-05-07 16:09 | 50.05066 | 8.55399 | 695 ft | 124 kts | 249° |
| 2026-05-07 16:09 | 50.04761 | 8.54127 | 532 ft | 123 kts | 249° |
| 2026-05-07 16:09 | 50.04470 | 8.52864 | 385 ft | 123 kts | 248° |
| 2026-05-07 16:10 | 50.04234 | 8.51899 | 362 ft | 43 kts | 249° |
| 2026-05-07 16:10 | 50.04079 | 8.51511 | 359 ft | 42 kts | 225° |
| 2026-05-07 16:10 | 50.04002 | 8.51405 | 357 ft | 2 kts | 223° |
| 2026-05-07 16:10 | 50.03960 | 8.51357 | 355 ft | 5 kts | 216° |
| 2026-05-07 16:11 | 50.03959 | 8.51357 | 355 ft | 0 kts | 212° |
| 2026-05-07 16:11 | 50.03958 | 8.51356 | 354 ft | 0 kts | 211° |
| 2026-05-07 16:11 | 50.03945 | 8.51354 | 354 ft | 11 kts | 185° |
| 2026-05-07 16:11 | 50.03907 | 8.51395 | 349 ft | 6 kts | 105° |
| 2026-05-07 16:12 | 50.03918 | 8.51502 | 348 ft | 13 kts | 70° |
| 2026-05-07 16:12 | 50.03957 | 8.51668 | 356 ft | 20 kts | 69° |
| 2026-05-07 16:12 | 50.04010 | 8.51891 | 361 ft | 24 kts | 69° |
| 2026-05-07 16:12 | 50.04076 | 8.52157 | 359 ft | 29 kts | 69° |
| 2026-05-07 16:13 | 50.04151 | 8.52469 | 359 ft | 33 kts | 69° |
| 2026-05-07 16:13 | 50.04233 | 8.52811 | 365 ft | 34 kts | 69° |
| 2026-05-07 16:13 | 50.04317 | 8.53161 | 370 ft | 34 kts | 69° |
| 2026-05-07 16:13 | 50.04396 | 8.53505 | 376 ft | 32 kts | 79° |
| 2026-05-07 16:14 | 50.04419 | 8.53830 | 375 ft | 31 kts | 84° |
| 2026-05-07 16:14 | 50.04442 | 8.54178 | 375 ft | 35 kts | 86° |
| 2026-05-07 16:14 | 50.04448 | 8.54492 | 351 ft | 13 kts | 99° |
| 2026-05-07 16:14 | 50.04407 | 8.54645 | 352 ft | 17 kts | 127° |
| 2026-05-07 16:15 | 50.04338 | 8.54749 | 357 ft | 0 kts | 148° |
| 2026-05-07 16:15 | 50.04323 | 8.54763 | 357 ft | 5 kts | 151° |
| 2026-05-07 16:15 | 50.04279 | 8.54794 | 360 ft | 10 kts | 160° |
| 2026-05-07 16:15 | 50.04225 | 8.54823 | 361 ft | 1 kts | 161° |
| 2026-05-07 16:16 | 50.04203 | 8.54835 | 356 ft | 0 kts | 159° |
| 2026-05-07 16:16 | 50.04200 | 8.54837 | 355 ft | 3 kts | 159° |
| 2026-05-07 16:16 | 50.04183 | 8.54847 | 360 ft | 0 kts | 159° |
| 2026-05-07 16:17 | 50.04178 | 8.54850 | 360 ft | 2 kts | 159° |
| 2026-05-07 16:17 | 50.04158 | 8.54862 | 361 ft | 2 kts | 161° |
| 2026-05-07 16:18 | 50.04121 | 8.54881 | 361 ft | 9 kts | 160° |
| 2026-05-07 16:18 | 50.04047 | 8.54925 | 358 ft | 13 kts | 158° |
| 2026-05-07 16:18 | 50.03950 | 8.54983 | 363 ft | 18 kts | 159° |
| 2026-05-07 16:18 | 50.03849 | 8.55072 | 359 ft | 15 kts | 112° |
| 2026-05-07 16:19 | 50.03869 | 8.55197 | 361 ft | 11 kts | 70° |
| 2026-05-07 16:19 | 50.03905 | 8.55345 | 359 ft | 9 kts | 69° |
| 2026-05-07 16:19 | 50.03929 | 8.55450 | 363 ft | 22 kts | 71° |
| 2026-05-07 16:19 | 50.03960 | 8.55580 | 358 ft | 14 kts | 69° |
| 2026-05-07 16:20 | 50.04005 | 8.55765 | 359 ft | 5 kts | 70° |
| 2026-05-07 16:20 | 50.04010 | 8.55788 | 360 ft | 0 kts | 70° |
| 2026-05-07 16:20 | 50.04011 | 8.55792 | 361 ft | 0 kts | 70° |
| 2026-05-07 16:21 | 50.04013 | 8.55801 | 360 ft | 4 kts | 70° |
| 2026-05-07 16:21 | 50.04026 | 8.55855 | 361 ft | 0 kts | 70° |
| 2026-05-07 16:21 | 50.04039 | 8.55910 | 355 ft | 8 kts | 70° |
| 2026-05-07 16:22 | 50.04048 | 8.55950 | 353 ft | 9 kts | 70° |
| 2026-05-07 16:22 | 50.04077 | 8.56073 | 352 ft | 16 kts | 69° |
| 2026-05-07 16:22 | 50.04127 | 8.56274 | 349 ft | 23 kts | 70° |
| 2026-05-07 16:22 | 50.04170 | 8.56456 | 354 ft | 16 kts | 70° |
| 2026-05-07 16:23 | 50.04213 | 8.56636 | 355 ft | 20 kts | 69° |
| 2026-05-07 16:23 | 50.04256 | 8.56814 | 358 ft | 18 kts | 70° |
| 2026-05-07 16:23 | 50.04304 | 8.57021 | 352 ft | 10 kts | 70° |
| 2026-05-07 16:23 | 50.04312 | 8.57056 | 354 ft | 8 kts | 70° |
| 2026-05-07 16:24 | 50.04346 | 8.57191 | 347 ft | 18 kts | 69° |
| 2026-05-07 16:24 | 50.04398 | 8.57410 | 338 ft | 26 kts | 69° |
| 2026-05-07 16:24 | 50.04469 | 8.57710 | 337 ft | 32 kts | 70° |
| 2026-05-07 16:24 | 50.04548 | 8.58041 | 336 ft | 35 kts | 70° |
| 2026-05-07 16:25 | 50.04640 | 8.58423 | 334 ft | 40 kts | 69° |
| 2026-05-07 16:25 | 50.04730 | 8.58780 | 326 ft | 33 kts | 69° |
| 2026-05-07 16:25 | 50.04811 | 8.59124 | 348 ft | 33 kts | 70° |
| 2026-05-07 16:25 | 50.04888 | 8.59349 | 360 ft | 14 kts | 18° |
| 2026-05-07 16:26 | 50.04994 | 8.59302 | 360 ft | 18 kts | 340° |
| 2026-05-07 16:26 | 50.05058 | 8.59158 | 358 ft | 19 kts | 269° |
| 2026-05-07 16:26 | 50.05018 | 8.58959 | 360 ft | 21 kts | 250° |
| 2026-05-07 16:26 | 50.04982 | 8.58813 | 352 ft | 11 kts | 249° |
| 2026-05-07 16:27 | 50.04970 | 8.58782 | 351 ft | 7 kts | 221° |
| 2026-05-07 16:27 | 50.04905 | 8.58795 | 351 ft | 2 kts | 161° |
| 2026-05-07 16:27 | 50.04899 | 8.58798 | 349 ft | 0 kts | 161° |